createdAt,value
2019-04-25T00:01:33.456Z,0.90
2019-04-25T00:04:02.347Z,0.80
2019-04-25T00:06:32.146Z,0.80
2019-04-25T00:09:01.876Z,0.80
2019-04-25T00:11:31.291Z,1.10
2019-04-25T00:14:01.541Z,0.70
2019-04-25T00:16:32.184Z,0.60
2019-04-25T00:19:01.881Z,0.70
2019-04-25T00:21:42.532Z,0.72
2019-04-25T00:24:13.815Z,0.90
2019-04-25T00:26:45.147Z,0.75
2019-04-25T00:29:14.221Z,0.85
2019-04-25T00:31:43.827Z,0.70
2019-04-25T00:34:13.847Z,0.85
2019-04-25T00:36:43.502Z,0.68
2019-04-25T00:39:13.311Z,0.68
2019-04-25T00:41:44.339Z,0.90
2019-04-25T00:44:12.899Z,0.70
2019-04-25T00:46:44.841Z,0.70
2019-04-25T00:49:12.366Z,0.70
2019-04-25T00:51:42.669Z,0.70
2019-04-25T00:54:11.924Z,0.70
2019-04-25T00:56:44.503Z,0.70
2019-04-25T00:59:15.745Z,0.68
2019-04-25T01:04:18.791Z,0.70
2019-04-25T01:06:47.679Z,0.53
2019-04-25T01:09:18.193Z,0.70
2019-04-25T01:11:47.923Z,0.80
2019-04-25T01:14:17.018Z,0.80
2019-04-25T01:16:46.491Z,0.80
2019-04-25T01:19:15.635Z,0.85
2019-04-25T01:21:45.508Z,0.60
2019-04-25T01:24:15.751Z,0.80
2019-04-25T01:26:45.857Z,0.90
2019-04-25T01:29:15.463Z,0.88
2019-04-25T01:31:44.477Z,1.15
2019-04-25T01:34:14.327Z,0.90
2019-04-25T01:36:47.456Z,0.82
2019-04-25T01:39:20.736Z,0.90
2019-04-25T01:44:47.961Z,0.80
2019-04-25T01:47:17.120Z,0.88
2019-04-25T01:49:46.048Z,0.68
2019-04-25T01:52:14.921Z,0.57
2019-04-25T01:54:43.862Z,0.60
2019-04-25T01:57:14.294Z,0.70
2019-04-25T01:59:43.886Z,0.90
2019-04-25T02:02:14.535Z,0.85
2019-04-25T02:04:44.362Z,0.85
2019-04-25T02:07:13.562Z,0.70
2019-04-25T02:09:43.550Z,0.80
2019-04-25T02:12:15.520Z,0.60
2019-04-25T02:14:44.693Z,0.82
2019-04-25T02:17:14.173Z,1.10
2019-04-25T02:19:44.122Z,0.88
2019-04-25T02:22:14.535Z,1.10
2019-04-25T02:24:43.777Z,0.90
2019-04-25T02:27:13.401Z,0.85
2019-04-25T02:29:43.256Z,0.98
2019-04-25T02:32:14.508Z,1.00
2019-04-25T02:34:45.500Z,1.12
2019-04-25T02:37:14.749Z,1.00
2019-04-25T02:39:44.744Z,1.30
2019-04-25T02:42:16.537Z,1.17
2019-04-25T02:44:46.133Z,0.95
2019-04-25T02:47:19.855Z,1.50
2019-04-25T02:49:50.314Z,1.02
2019-04-25T02:52:20.838Z,1.00
2019-04-25T02:54:49.813Z,1.12
2019-04-25T02:57:18.868Z,0.88
2019-04-25T02:59:47.748Z,1.25
2019-04-25T03:02:16.784Z,1.30
2019-04-25T03:04:45.673Z,1.75
2019-04-25T03:07:17.560Z,1.17
2019-04-25T03:09:45.275Z,1.10
2019-04-25T03:12:26.818Z,1.17
2019-04-25T03:14:45.015Z,1.15
2019-04-25T03:17:14.496Z,1.00
2019-04-25T03:19:51.059Z,1.17
2019-04-25T03:22:34.489Z,1.07
2019-04-25T03:25:07.043Z,1.27
2019-04-25T03:27:35.070Z,1.05
2019-04-25T03:30:10.750Z,0.98
2019-04-25T03:32:35.825Z,0.90
2019-04-25T03:35:05.830Z,1.22
2019-04-25T03:37:35.347Z,1.05
2019-04-25T03:40:06.978Z,1.00
2019-04-25T03:42:36.788Z,1.10
2019-04-25T03:45:07.115Z,1.25
2019-04-25T03:47:36.188Z,1.20
2019-04-25T03:50:08.176Z,1.22
2019-04-25T03:52:37.959Z,1.00
2019-04-25T03:55:08.611Z,1.20
2019-04-25T03:57:37.589Z,1.00
2019-04-25T04:00:07.523Z,1.10
2019-04-25T04:02:37.322Z,1.07
2019-04-25T04:05:08.259Z,1.50
2019-04-25T04:07:37.610Z,1.22
2019-04-25T04:10:08.005Z,1.50
2019-04-25T04:12:37.031Z,1.35
2019-04-25T04:15:08.263Z,1.25
2019-04-25T04:17:38.853Z,1.12
2019-04-25T04:20:09.857Z,1.20
2019-04-25T04:22:49.865Z,1.10
2019-04-25T04:25:20.374Z,1.20
2019-04-25T04:27:49.277Z,1.20
2019-04-25T04:30:18.211Z,1.32
2019-04-25T04:32:47.115Z,1.05
2019-04-25T04:35:16.467Z,1.22
2019-04-25T04:37:46.435Z,1.00
2019-04-25T04:40:17.260Z,1.00
2019-04-25T04:42:45.900Z,1.10
2019-04-25T04:45:15.778Z,1.20
2019-04-25T04:47:45.405Z,1.10
2019-04-25T04:50:15.309Z,1.00
2019-04-25T04:52:44.430Z,1.25
2019-04-25T04:55:16.929Z,1.30
2019-04-25T04:57:44.897Z,1.57
2019-04-25T05:00:14.631Z,1.22
2019-04-25T05:02:48.801Z,1.10
2019-04-25T05:05:19.308Z,1.22
2019-04-25T05:07:49.776Z,1.25
2019-04-25T05:10:19.774Z,1.50
2019-04-25T05:12:48.982Z,1.27
2019-04-25T05:15:18.939Z,1.00
2019-04-25T05:17:48.140Z,1.07
2019-04-25T05:20:18.515Z,1.25
2019-04-25T05:22:47.861Z,1.10
2019-04-25T05:25:17.794Z,1.00
2019-04-25T05:27:59.562Z,1.17
2019-04-25T05:30:19.767Z,1.30
2019-04-25T05:32:48.718Z,0.85
2019-04-25T05:35:17.837Z,0.82
2019-04-25T05:37:46.753Z,1.20
2019-04-25T05:40:16.897Z,0.80
2019-04-25T05:42:50.355Z,0.90
2019-04-25T05:45:21.243Z,0.90
2019-04-25T05:47:50.234Z,1.00
2019-04-25T05:50:19.880Z,1.02
2019-04-25T05:52:48.926Z,1.10
2019-04-25T05:55:19.910Z,1.07
2019-04-25T05:57:50.245Z,0.80
2019-04-25T06:00:20.601Z,0.72
2019-04-25T06:02:49.689Z,1.10
2019-04-25T06:05:19.058Z,1.50
2019-04-25T06:07:48.020Z,0.93
2019-04-25T06:10:19.478Z,0.90
2019-04-25T06:13:08.191Z,1.20
2019-04-25T06:15:37.115Z,1.30
2019-04-25T06:18:10.395Z,0.78
2019-04-25T06:23:08.955Z,1.02
2019-04-25T06:25:39.905Z,0.70
2019-04-25T06:28:09.987Z,0.60
2019-04-25T06:30:38.869Z,0.78
2019-04-25T06:33:07.796Z,0.62
2019-04-25T06:35:36.692Z,0.72
2019-04-25T06:38:05.630Z,0.70
2019-04-25T06:40:34.635Z,0.60
2019-04-25T06:43:03.858Z,0.53
2019-04-25T06:45:36.939Z,0.50
2019-04-25T06:48:13.979Z,0.50
2019-04-25T06:50:43.805Z,0.70
2019-04-25T06:53:13.612Z,0.72
2019-04-25T06:55:43.400Z,0.50
2019-04-25T06:58:14.551Z,0.93
2019-04-25T07:00:57.151Z,0.53
2019-04-25T07:03:15.577Z,1.20
2019-04-25T07:05:44.668Z,0.82
2019-04-25T07:08:13.604Z,0.90
2019-04-25T07:10:44.363Z,0.88
2019-04-25T07:13:14.232Z,0.78
2019-04-25T07:15:43.697Z,0.70
2019-04-25T07:18:13.935Z,0.85
2019-04-25T07:20:45.245Z,0.57
2019-04-25T07:23:14.106Z,0.47
2019-04-25T07:25:44.610Z,0.70
2019-04-25T07:28:31.469Z,0.40
2019-04-25T07:31:18.608Z,0.60
2019-04-25T07:33:58.096Z,0.70
2019-04-25T07:36:28.151Z,0.90
2019-04-25T07:39:07.482Z,0.78
2019-04-25T07:41:27.999Z,0.50
2019-04-25T07:43:56.880Z,0.60
2019-04-25T07:46:26.373Z,0.60
2019-04-25T07:48:55.395Z,0.50
2019-04-25T07:51:24.319Z,0.60
2019-04-25T07:53:53.516Z,0.50
2019-04-25T07:56:24.070Z,0.50
2019-04-25T07:58:54.724Z,0.88
2019-04-25T08:01:23.905Z,0.70
2019-04-25T08:03:53.757Z,0.80
2019-04-25T08:06:24.264Z,0.50
2019-04-25T08:08:54.610Z,1.00
2019-04-25T08:11:23.795Z,0.60
2019-04-25T08:14:03.468Z,0.62
2019-04-25T08:16:37.304Z,0.60
2019-04-25T08:19:06.494Z,0.60
2019-04-25T08:21:35.675Z,0.93
2019-04-25T08:24:05.607Z,0.70
2019-04-25T08:26:36.087Z,0.70
2019-04-25T08:29:05.838Z,1.10
2019-04-25T08:31:36.222Z,0.60
2019-04-25T08:34:05.359Z,0.70
2019-04-25T08:36:37.092Z,0.68
2019-04-25T08:39:07.734Z,0.72
2019-04-25T08:41:37.024Z,0.70
2019-04-25T08:44:06.185Z,0.60
2019-04-25T08:46:36.769Z,0.80
2019-04-25T08:49:16.938Z,0.50
2019-04-25T08:51:46.963Z,0.60
2019-04-25T08:54:17.533Z,0.75
2019-04-25T08:56:46.423Z,0.50
2019-04-25T08:59:40.102Z,0.70
2019-04-25T09:02:08.248Z,0.62
2019-04-25T09:04:41.223Z,0.72
2019-04-25T09:07:10.134Z,0.75
2019-04-25T09:09:39.070Z,0.80
2019-04-25T09:12:07.956Z,0.72
2019-04-25T09:14:37.748Z,0.68
2019-04-25T09:17:06.874Z,0.62
2019-04-25T09:19:36.981Z,0.80
2019-04-25T09:22:06.602Z,0.60
2019-04-25T09:24:36.848Z,0.85
2019-04-25T09:27:06.053Z,0.75
2019-04-25T09:29:35.698Z,0.62
2019-04-25T09:32:05.971Z,0.95
2019-04-25T09:34:35.525Z,0.65
2019-04-25T09:37:04.683Z,1.30
2019-04-25T09:39:44.326Z,0.82
2019-04-25T09:42:14.277Z,0.80
2019-04-25T09:44:53.873Z,0.70
2019-04-25T09:47:23.448Z,0.90
2019-04-25T09:49:53.837Z,0.60
2019-04-25T09:52:24.410Z,0.80
2019-04-25T09:55:00.767Z,0.70
2019-04-25T09:57:31.234Z,0.50
2019-04-25T10:00:00.361Z,0.60
2019-04-25T10:02:29.252Z,0.70
2019-04-25T10:04:58.186Z,0.80
2019-04-25T10:07:27.091Z,0.80
2019-04-25T10:09:56.038Z,0.68
2019-04-25T10:12:25.021Z,0.85
2019-04-25T10:15:04.309Z,0.50
2019-04-25T10:17:33.801Z,1.00
2019-04-25T10:20:02.881Z,0.80
2019-04-25T10:22:31.804Z,0.70
2019-04-25T10:25:00.879Z,0.80
2019-04-25T10:27:29.923Z,0.50
2019-04-25T10:29:58.850Z,0.95
2019-04-25T10:32:27.856Z,0.70
2019-04-25T10:34:56.746Z,0.45
2019-04-25T10:37:25.856Z,0.70
2019-04-25T10:39:55.653Z,0.70
2019-04-25T10:42:27.861Z,0.85
2019-04-25T10:45:00.022Z,0.75
2019-04-25T10:47:31.444Z,0.80
2019-04-25T10:50:00.333Z,0.60
2019-04-25T10:52:29.248Z,0.50
2019-04-25T10:55:05.553Z,0.50
2019-04-25T10:57:35.017Z,0.55
2019-04-25T11:00:09.570Z,0.57
2019-04-25T11:02:37.809Z,0.90
2019-04-25T11:05:15.332Z,0.50
2019-04-25T11:07:44.517Z,0.50
2019-04-25T11:10:14.418Z,0.60
2019-04-25T11:12:45.970Z,0.40
2019-04-25T11:15:15.097Z,0.50
2019-04-25T11:17:45.818Z,0.53
2019-04-25T11:20:26.507Z,0.72
2019-04-25T11:22:55.434Z,0.40
2019-04-25T11:25:24.966Z,0.60
2019-04-25T11:27:59.905Z,1.17
2019-04-25T11:30:30.137Z,0.60
2019-04-25T11:33:01.515Z,0.70
2019-04-25T11:35:30.492Z,0.60
2019-04-25T11:38:01.161Z,0.60
2019-04-25T11:40:37.961Z,0.62
2019-04-25T11:43:07.471Z,0.62
2019-04-25T11:45:37.992Z,0.50
2019-04-25T11:48:08.079Z,0.50
2019-04-25T11:50:37.160Z,0.65
2019-04-25T11:53:06.286Z,0.70
2019-04-25T11:55:35.225Z,0.60
2019-04-25T11:58:04.116Z,0.60
2019-04-25T12:00:34.345Z,0.75
2019-04-25T12:03:03.788Z,1.05
2019-04-25T12:05:34.190Z,0.50
2019-04-25T12:08:04.209Z,0.42
2019-04-25T12:10:34.644Z,0.70
2019-04-25T12:13:04.294Z,0.65
2019-04-25T12:15:33.462Z,0.60
2019-04-25T12:18:02.330Z,0.50
2019-04-25T12:20:31.253Z,0.50
2019-04-25T12:23:08.312Z,0.60
2019-04-25T12:25:30.712Z,0.50
2019-04-25T12:28:00.275Z,0.50
2019-04-25T12:30:39.495Z,0.40
2019-04-25T12:32:59.763Z,0.60
2019-04-25T12:35:28.648Z,0.40
2019-04-25T12:37:57.586Z,0.50
2019-04-25T12:40:26.475Z,0.57
2019-04-25T12:42:55.415Z,0.50
2019-04-25T12:45:28.869Z,0.40
2019-04-25T12:47:59.447Z,0.60
2019-04-25T12:50:28.377Z,0.50
2019-04-25T12:52:58.126Z,0.40
2019-04-25T12:55:27.197Z,0.42
2019-04-25T12:57:56.528Z,0.50
2019-04-25T13:00:27.006Z,0.60
2019-04-25T13:02:56.604Z,0.50
2019-04-25T13:05:25.640Z,0.40
2019-04-25T13:07:58.404Z,0.40
2019-04-25T13:10:25.121Z,0.70
2019-04-25T13:12:55.480Z,0.50
2019-04-25T13:15:25.798Z,0.47
2019-04-25T13:17:55.265Z,0.57
2019-04-25T13:20:24.175Z,0.50
2019-04-25T13:22:53.343Z,0.45
2019-04-25T13:25:24.306Z,0.37
2019-04-25T13:28:10.533Z,0.50
2019-04-25T13:30:41.180Z,0.53
2019-04-25T13:33:13.298Z,0.60
2019-04-25T13:35:54.326Z,0.60
2019-04-25T13:38:23.525Z,0.50
2019-04-25T13:40:52.408Z,0.65
2019-04-25T13:43:21.337Z,0.60
2019-04-25T13:45:50.271Z,0.55
2019-04-25T13:48:19.170Z,0.80
2019-04-25T13:50:48.092Z,0.50
2019-04-25T13:53:16.986Z,0.50
2019-04-25T13:55:45.925Z,0.78
2019-04-25T13:58:15.622Z,0.60
2019-04-25T14:00:46.020Z,0.47
2019-04-25T14:03:15.005Z,0.60
2019-04-25T14:05:43.989Z,0.90
2019-04-25T14:08:13.153Z,0.72
2019-04-25T14:10:44.323Z,0.70
2019-04-25T14:13:13.728Z,0.72
2019-04-25T14:15:45.064Z,0.65
2019-04-25T14:18:15.673Z,0.50
2019-04-25T14:20:46.190Z,0.50
2019-04-25T14:23:15.401Z,0.62
2019-04-25T14:25:44.799Z,0.68
2019-04-25T14:28:14.116Z,0.75
2019-04-25T14:30:43.511Z,0.80
2019-04-25T14:33:13.560Z,0.68
2019-04-25T14:35:42.758Z,0.68
2019-04-25T14:38:11.618Z,0.78
2019-04-25T14:40:42.231Z,0.90
2019-04-25T14:43:11.075Z,0.80
2019-04-25T14:45:44.394Z,0.85
2019-04-25T14:48:10.576Z,0.75
2019-04-25T14:50:39.517Z,0.80
2019-04-25T14:53:08.467Z,0.90
2019-04-25T14:55:51.295Z,0.80
2019-04-25T14:58:21.830Z,0.88
2019-04-25T15:00:52.064Z,0.70
2019-04-25T15:03:21.105Z,0.85
2019-04-25T15:05:49.993Z,1.00
2019-04-25T15:08:18.934Z,0.75
2019-04-25T15:10:48.509Z,0.80
2019-04-25T15:13:17.529Z,0.80
2019-04-25T15:15:46.409Z,0.80
2019-04-25T15:18:15.343Z,0.60
2019-04-25T15:20:44.224Z,0.80
2019-04-25T15:23:13.167Z,0.60
2019-04-25T15:25:42.047Z,0.95
2019-04-25T15:28:10.994Z,0.70
2019-04-25T15:30:40.573Z,0.80
2019-04-25T15:33:09.496Z,0.68
2019-04-25T15:35:42.440Z,0.80
2019-04-25T15:38:12.953Z,0.82
2019-04-25T15:40:43.437Z,0.85
2019-04-25T15:43:19.865Z,0.70
2019-04-25T15:46:06.692Z,0.80
2019-04-25T15:48:35.739Z,0.70
2019-04-25T15:51:04.627Z,0.70
2019-04-25T15:53:33.578Z,0.70
2019-04-25T15:56:02.476Z,0.72
2019-04-25T15:58:31.394Z,1.00
2019-04-25T16:01:00.267Z,0.80
2019-04-25T16:03:29.219Z,0.93
2019-04-25T16:05:58.101Z,0.80
2019-04-25T16:08:27.638Z,0.78
2019-04-25T16:10:56.836Z,1.17
2019-04-25T16:13:26.916Z,1.00
2019-04-25T16:15:55.867Z,0.70
2019-04-25T16:18:24.841Z,0.93
2019-04-25T16:20:53.795Z,0.55
2019-04-25T16:23:22.723Z,0.80
2019-04-25T16:25:51.597Z,0.80
2019-04-25T16:28:20.594Z,0.85
2019-04-25T16:30:49.527Z,0.98
2019-04-25T16:33:18.421Z,1.05
2019-04-25T16:35:47.342Z,0.60
2019-04-25T16:38:16.533Z,0.82
2019-04-25T16:40:53.281Z,0.85
2019-04-25T16:43:24.181Z,0.80
2019-04-25T16:45:57.478Z,0.98
2019-04-25T16:48:26.371Z,0.90
2019-04-25T16:50:55.287Z,1.00
2019-04-25T16:53:24.177Z,0.70
2019-04-25T16:55:53.105Z,0.82
2019-04-25T16:58:23.312Z,0.70
2019-04-25T17:00:55.148Z,0.90
2019-04-25T17:03:24.754Z,0.85
2019-04-25T17:05:53.700Z,0.70
2019-04-25T17:08:22.885Z,1.15
2019-04-25T17:10:54.586Z,1.05
2019-04-25T17:13:23.778Z,0.68
2019-04-25T17:16:03.376Z,1.02
2019-04-25T17:18:39.856Z,0.90
2019-04-25T17:21:11.724Z,0.90
2019-04-25T17:23:40.873Z,1.05
2019-04-25T17:26:10.694Z,0.93
2019-04-25T17:28:41.247Z,1.00
2019-04-25T17:31:11.766Z,0.80
2019-04-25T17:33:42.532Z,1.17
2019-04-25T17:36:19.037Z,1.25
2019-04-25T17:38:52.578Z,0.82
2019-04-25T17:41:21.520Z,1.10
2019-04-25T17:43:50.519Z,1.07
2019-04-25T17:46:21.011Z,1.22
2019-04-25T17:48:51.525Z,1.12
2019-04-25T17:51:20.548Z,0.88
2019-04-25T17:53:49.487Z,0.80
2019-04-25T17:56:18.371Z,0.90
2019-04-25T17:58:47.306Z,0.90
2019-04-25T18:01:17.767Z,0.80
2019-04-25T18:03:46.690Z,0.98
2019-04-25T18:06:15.578Z,0.90
2019-04-25T18:08:44.616Z,0.90
2019-04-25T18:11:13.607Z,0.80
2019-04-25T18:13:42.648Z,0.88
2019-04-25T18:16:15.876Z,1.00
2019-04-25T18:21:17.116Z,0.88
2019-04-25T18:24:03.832Z,0.82
2019-04-25T18:26:35.255Z,0.90
2019-04-25T18:29:09.042Z,0.60
2019-04-25T18:31:37.922Z,0.90
2019-04-25T18:34:11.175Z,0.85
2019-04-25T18:37:00.108Z,0.90
2019-04-25T18:39:30.609Z,0.80
2019-04-25T18:42:03.845Z,1.00
2019-04-25T18:44:32.778Z,1.00
2019-04-25T18:47:01.663Z,0.88
2019-04-25T18:49:30.612Z,0.80
2019-04-25T18:52:01.698Z,0.80
2019-04-25T18:54:33.864Z,0.68
2019-04-25T18:57:07.764Z,0.80
2019-04-25T18:59:50.837Z,0.80
2019-04-25T19:02:31.708Z,0.70
2019-04-25T19:05:09.294Z,0.80
2019-04-25T19:07:41.679Z,0.65
2019-04-25T19:10:14.598Z,0.75
2019-04-25T19:12:48.256Z,0.70
2019-04-25T19:15:19.893Z,0.62
2019-04-25T19:17:50.579Z,0.70
2019-04-25T19:20:21.828Z,0.60
2019-04-25T19:22:53.329Z,0.53
2019-04-25T19:25:25.401Z,0.80
2019-04-25T19:27:56.642Z,0.80
2019-04-25T19:30:28.109Z,0.93
2019-04-25T19:33:00.518Z,0.80
2019-04-25T19:35:32.524Z,0.70
2019-04-25T19:38:02.852Z,0.60
2019-04-25T19:40:42.718Z,0.80
2019-04-25T19:43:15.999Z,0.55
2019-04-25T19:48:15.322Z,0.75
2019-04-25T19:50:44.222Z,0.60
2019-04-25T19:53:13.201Z,0.70
2019-04-25T19:55:43.379Z,0.62
2019-04-25T19:58:12.515Z,0.78
2019-04-25T20:00:42.700Z,0.90
2019-04-25T20:03:13.807Z,0.70
2019-04-25T20:05:48.293Z,0.62
2019-04-25T20:08:27.928Z,0.60
2019-04-25T20:11:10.423Z,0.45
2019-04-25T20:13:39.346Z,0.60
2019-04-25T20:16:09.284Z,0.93
2019-04-25T20:18:38.224Z,0.70
2019-04-25T20:21:07.113Z,0.60
2019-04-25T20:23:36.055Z,0.90
2019-04-25T20:26:04.949Z,0.85
2019-04-25T20:28:33.887Z,0.70
2019-04-25T20:31:02.783Z,0.80
2019-04-25T20:33:31.741Z,0.70
2019-04-25T20:36:00.628Z,0.82
2019-04-25T20:38:29.569Z,0.80
2019-04-25T20:40:59.070Z,0.68
2019-04-25T20:43:28.066Z,0.80
2019-04-25T20:45:57.050Z,0.70
2019-04-25T20:48:26.104Z,0.70
2019-04-25T20:50:55.030Z,0.80
2019-04-25T20:53:23.964Z,0.80
2019-04-25T20:55:52.967Z,0.62
2019-04-25T20:58:21.960Z,0.60
2019-04-25T21:00:55.931Z,0.60
2019-04-25T21:03:25.011Z,1.00
2019-04-25T21:05:55.485Z,0.60
2019-04-25T21:08:24.653Z,0.72
2019-04-25T21:10:53.782Z,0.65
2019-04-25T21:13:27.067Z,0.70
2019-04-25T21:18:49.645Z,0.55
2019-04-25T21:21:37.861Z,0.82
2019-04-25T21:24:06.839Z,0.60
2019-04-25T21:26:35.940Z,0.90
2019-04-25T21:29:05.638Z,0.70
2019-04-25T21:31:34.611Z,0.50
2019-04-25T21:34:03.735Z,0.60
2019-04-25T21:36:32.932Z,0.70
2019-04-25T21:39:02.153Z,0.80
2019-04-25T21:41:39.229Z,0.90
2019-04-25T21:44:09.022Z,0.60
2019-04-25T21:46:37.977Z,0.80
2019-04-25T21:49:07.262Z,0.70
2019-04-25T21:51:36.258Z,0.68
2019-04-25T21:54:05.373Z,0.70
2019-04-25T21:56:34.614Z,0.50
2019-04-25T21:59:04.113Z,0.60
2019-04-25T22:01:37.925Z,0.60
2019-04-25T22:04:06.815Z,0.50
2019-04-25T22:06:37.157Z,0.68
2019-04-25T22:09:11.803Z,0.65
2019-04-25T22:11:40.860Z,0.57
2019-04-25T22:14:10.779Z,0.70
2019-04-25T22:16:40.029Z,0.60
2019-04-25T22:19:09.791Z,0.75
2019-04-25T22:21:39.166Z,0.57
2019-04-25T22:24:11.250Z,0.70
2019-04-25T22:26:39.012Z,0.70
2019-04-25T22:29:08.326Z,0.50
2019-04-25T22:31:44.706Z,0.62
2019-04-25T22:34:15.152Z,0.57
2019-04-25T22:36:44.397Z,0.60
2019-04-25T22:39:14.197Z,0.40
2019-04-25T22:41:46.878Z,0.57
2019-04-25T22:44:17.543Z,0.72
2019-04-25T22:46:46.769Z,0.42
2019-04-25T22:49:15.695Z,0.60
2019-04-25T22:51:44.584Z,0.60
2019-04-25T22:54:14.235Z,0.93
2019-04-25T22:56:43.143Z,0.40
2019-04-25T22:59:12.771Z,0.70
2019-04-25T23:01:45.954Z,0.62
2019-04-25T23:04:22.679Z,0.60
2019-04-25T23:06:51.560Z,0.60
2019-04-25T23:09:20.513Z,0.50
2019-04-25T23:11:49.694Z,0.45
2019-04-25T23:14:19.023Z,0.60
2019-04-25T23:16:47.907Z,0.50
2019-04-25T23:19:16.831Z,0.50
2019-04-25T23:21:46.011Z,0.50
2019-04-25T23:24:16.564Z,0.50
2019-04-25T23:26:56.284Z,0.60
2019-04-25T23:29:25.224Z,0.60
2019-04-25T23:31:54.103Z,0.57
2019-04-25T23:34:23.342Z,0.70
2019-04-25T23:36:52.230Z,0.50
2019-04-25T23:39:21.252Z,0.55
2019-04-25T23:41:50.137Z,0.50
2019-04-25T23:44:19.072Z,0.50
2019-04-25T23:46:48.367Z,0.55
2019-04-25T23:49:17.296Z,0.70
2019-04-25T23:51:46.493Z,0.68
2019-04-25T23:54:15.424Z,0.70
2019-04-25T23:56:44.324Z,0.60
2019-04-25T23:59:13.655Z,0.60
